Time;durP1;ratioP1;P1;durP2;ratioP2;P2;SDS_P1;SDS_P2;PMS_P1;PMS_P2;Temp;Humidity;BMP_temperature;BMP_pressure;BME280_temperature;BME280_humidity;BME280_pressure;Samples;Min_cycle;Max_cycle;Signal;HPM_P1;HPM_P2
2022/05/24 00:01:13;;;;;;;;;;;22.70;99.90;;;;;;5052407;28;19963;-74
2022/05/24 00:03:38;;;;;;;;;;;22.70;99.90;;;;;;5049307;28;19978;-74
2022/05/24 00:06:04;;;;;;;;;;;22.70;99.90;;;;;;5031399;28;20077;-73
2022/05/24 00:08:30;;;;;;;;;;;22.80;99.90;;;;;;5048646;28;19913;-74
2022/05/24 00:10:55;;;;;;;;;;;22.80;99.90;;;;;;5053935;28;19917;-73
2022/05/24 00:13:21;;;;;;;;;;;22.80;99.90;;;;;;5044494;28;19913;-74
2022/05/24 00:15:47;;;;;;;;;;;22.80;99.90;;;;;;5045181;28;19983;-74
2022/05/24 00:18:23;;;;;;;;;;;22.70;99.90;;;;;;5045443;28;19927;-74
2022/05/24 00:20:50;;;;;;;;;;;22.70;99.90;;;;;;5050451;28;19920;-74
2022/05/24 00:23:17;;;;;;;;;;;22.70;99.90;;;;;;5051111;28;19974;-73
2022/05/24 00:25:47;;;;;;;;;;;22.70;99.90;;;;;;5040418;28;19913;-73
2022/05/24 00:28:14;;;;;;;;;;;22.70;99.90;;;;;;5055352;28;19921;-73
2022/05/24 00:30:40;;;;;;;;;;;22.70;99.90;;;;;;5068562;28;19955;-74
2022/05/24 00:33:06;;;;;;;;;;;22.70;99.90;;;;;;5049204;28;19965;-73
2022/05/24 00:35:32;;;;;;;;;;;22.60;99.90;;;;;;5049507;28;20350;-74
2022/05/24 00:37:58;;;;;;;;;;;22.60;99.90;;;;;;5046091;28;20126;-74
2022/05/24 00:40:42;;;;;;;;;;;22.60;99.90;;;;;;5051161;28;20307;-73
2022/05/24 00:43:26;;;;;;;;;;;22.70;99.90;;;;;;5046012;28;19913;-72
2022/05/24 00:45:53;;;;;;;;;;;22.70;99.90;;;;;;5045744;28;19920;-72
2022/05/24 00:48:28;;;;;;;;;;;22.60;99.90;;;;;;5049258;28;19958;-73
2022/05/24 00:50:54;;;;;;;;;;;22.50;99.90;;;;;;5051445;28;20412;-73
2022/05/24 00:53:25;;;;;;;;;;;22.70;99.90;;;;;;5031143;28;19920;-73
2022/05/24 00:55:54;;;;;;;;;;;22.70;99.90;;;;;;5051420;28;20007;-73
2022/05/24 00:58:35;;;;;;;;;;;22.70;99.90;;;;;;5050686;28;19917;-74
2022/05/24 01:01:03;;;;;;;;;;;22.70;99.90;;;;;;5049528;28;20431;-76
2022/05/24 01:03:29;;;;;;;;;;;22.70;99.90;;;;;;5045169;28;19960;-73
2022/05/24 01:05:54;;;;;;;;;;;22.70;99.90;;;;;;5044632;28;20349;-75
2022/05/24 01:08:20;;;;;;;;;;;22.80;99.90;;;;;;5049274;28;19920;-74
2022/05/24 01:10:48;;;;;;;;;;;22.80;99.90;;;;;;5059118;28;19944;-73
2022/05/24 01:13:16;;;;;;;;;;;22.70;99.90;;;;;;5050930;28;19916;-73
2022/05/24 01:15:44;;;;;;;;;;;22.70;99.90;;;;;;5052121;28;20003;-73
2022/05/24 01:18:10;;;;;;;;;;;22.60;99.90;;;;;;5044288;28;19920;-73
2022/05/24 01:20:36;;;;;;;;;;;22.60;99.90;;;;;;5047707;28;19924;-74
2022/05/24 01:23:08;;;;;;;;;;;22.60;99.90;;;;;;5052915;28;19965;-74
2022/05/24 01:25:56;;;;;;;;;;;22.50;99.90;;;;;;5030208;28;19920;-74
2022/05/24 01:28:27;;;;;;;;;;;22.50;99.90;;;;;;5048251;28;19912;-75
2022/05/24 01:30:54;;;;;;;;;;;22.60;99.90;;;;;;5055241;28;20363;-73
2022/05/24 01:36:10;;;;;;;;;;;22.60;99.90;;;;;;5046788;28;19947;-74
2022/05/24 01:38:50;;;;;;;;;;;22.60;99.90;;;;;;5051373;28;19966;-73
2022/05/24 01:41:24;;;;;;;;;;;22.50;99.90;;;;;;5048388;28;19999;-74
2022/05/24 01:43:51;;;;;;;;;;;22.60;99.90;;;;;;5049619;28;19912;-74
2022/05/24 01:46:19;;;;;;;;;;;22.60;99.90;;;;;;5052678;28;19961;-73
2022/05/24 01:48:48;;;;;;;;;;;22.50;99.90;;;;;;5049794;28;19956;-72
2022/05/24 01:51:15;;;;;;;;;;;22.50;99.90;;;;;;5049423;28;19989;-74
2022/05/24 01:53:46;;;;;;;;;;;22.50;99.90;;;;;;5050914;28;19966;-72
2022/05/24 01:56:14;;;;;;;;;;;22.50;99.90;;;;;;5054899;28;19913;-73
2022/05/24 01:58:41;;;;;;;;;;;22.50;99.90;;;;;;5053931;28;19917;-73
2022/05/24 02:01:29;;;;;;;;;;;22.50;99.90;;;;;;5055791;28;19908;-73
2022/05/24 02:03:55;;;;;;;;;;;22.40;99.90;;;;;;5055230;28;19917;-73
2022/05/24 02:06:25;;;;;;;;;;;22.40;99.90;;;;;;5046684;28;21009;-73
2022/05/24 02:08:51;;;;;;;;;;;22.30;99.90;;;;;;5048544;28;19919;-72
2022/05/24 02:11:20;;;;;;;;;;;22.40;99.90;;;;;;5048743;28;19913;-74
2022/05/24 02:13:46;;;;;;;;;;;22.50;99.90;;;;;;5048063;28;20007;-73
2022/05/24 02:16:15;;;;;;;;;;;22.40;99.90;;;;;;5049280;28;19921;-74
2022/05/24 02:18:43;;;;;;;;;;;22.50;99.90;;;;;;5043118;28;19936;-72
2022/05/24 02:21:09;;;;;;;;;;;22.50;99.90;;;;;;5049002;28;19933;-74
2022/05/24 02:23:42;;;;;;;;;;;22.50;99.90;;;;;;5047633;28;19939;-73
2022/05/24 02:26:09;;;;;;;;;;;22.50;99.90;;;;;;5045885;28;19920;-72
2022/05/24 02:28:35;;;;;;;;;;;22.60;99.90;;;;;;5048501;28;19921;-73
2022/05/24 02:31:03;;;;;;;;;;;22.50;99.90;;;;;;5049864;28;19909;-73
2022/05/24 02:33:29;;;;;;;;;;;22.50;99.90;;;;;;5049308;28;19971;-73
2022/05/24 02:35:55;;;;;;;;;;;22.50;99.90;;;;;;5027984;28;19939;-73
2022/05/24 02:38:21;;;;;;;;;;;22.50;99.90;;;;;;5047461;28;19921;-73
2022/05/24 02:43:31;;;;;;;;;;;22.50;99.90;;;;;;5054729;28;20327;-73
2022/05/24 02:45:56;;;;;;;;;;;22.40;99.90;;;;;;5052197;28;20022;-73
2022/05/24 02:48:22;;;;;;;;;;;22.40;99.90;;;;;;5051862;28;19921;-74
2022/05/24 02:50:47;;;;;;;;;;;22.50;99.90;;;;;;5055762;28;19999;-74
2022/05/24 02:53:13;;;;;;;;;;;22.50;99.90;;;;;;5051678;28;20011;-72
2022/05/24 02:55:39;;;;;;;;;;;22.50;99.90;;;;;;5057763;28;19920;-72
2022/05/24 02:58:04;;;;;;;;;;;22.50;99.90;;;;;;5052445;28;19928;-75
2022/05/24 03:00:30;;;;;;;;;;;22.50;99.90;;;;;;5051926;28;19951;-74
2022/05/24 03:02:56;;;;;;;;;;;22.50;99.90;;;;;;5052698;28;19917;-73
2022/05/24 03:05:22;;;;;;;;;;;22.60;99.90;;;;;;5052907;28;20007;-74
2022/05/24 03:10:52;;;;;;;;;;;22.50;99.90;;;;;;4989235;28;19918;-72
2022/05/24 03:16:12;;;;;;;;;;;22.50;99.90;;;;;;5021677;28;20420;-74
2022/05/24 03:18:37;;;;;;;;;;;22.40;99.90;;;;;;5050936;28;20315;-74
2022/05/24 03:21:03;;;;;;;;;;;22.40;99.90;;;;;;5051122;28;19974;-74
2022/05/24 03:23:28;;;;;;;;;;;22.40;99.90;;;;;;5038685;28;19913;-74
2022/05/24 03:25:54;;;;;;;;;;;22.40;99.90;;;;;;5050433;28;20009;-72
2022/05/24 03:28:20;;;;;;;;;;;22.40;99.90;;;;;;5048185;28;20007;-73
2022/05/24 03:30:46;;;;;;;;;;;22.40;99.90;;;;;;5045765;28;19991;-73
2022/05/24 03:33:12;;;;;;;;;;;22.40;99.90;;;;;;5051564;28;19908;-74
2022/05/24 03:35:38;;;;;;;;;;;22.30;99.90;;;;;;5046212;28;20023;-74
2022/05/24 03:38:03;;;;;;;;;;;22.30;99.90;;;;;;5029618;28;19991;-73
2022/05/24 03:40:29;;;;;;;;;;;22.30;99.90;;;;;;5051034;28;19978;-74
2022/05/24 03:42:55;;;;;;;;;;;22.30;99.90;;;;;;5052790;28;19921;-73
2022/05/24 03:45:21;;;;;;;;;;;22.30;99.90;;;;;;5052353;28;20358;-74
2022/05/24 03:47:46;;;;;;;;;;;22.40;99.90;;;;;;5060006;28;19923;-73
2022/05/24 03:50:12;;;;;;;;;;;22.40;99.90;;;;;;5053117;28;19908;-74
2022/05/24 03:52:38;;;;;;;;;;;22.50;99.90;;;;;;5057521;28;19913;-74
2022/05/24 03:55:04;;;;;;;;;;;22.40;99.90;;;;;;5054539;28;19912;-75
2022/05/24 04:00:14;;;;;;;;;;;22.50;99.90;;;;;;5049572;28;20286;-74
2022/05/24 04:02:40;;;;;;;;;;;22.50;99.90;;;;;;5029319;28;19935;-74
2022/05/24 04:05:06;;;;;;;;;;;22.50;99.90;;;;;;5035629;28;20370;-75
2022/05/24 04:07:31;;;;;;;;;;;22.50;99.90;;;;;;5057381;28;20418;-74
2022/05/24 04:09:57;;;;;;;;;;;22.50;99.90;;;;;;5032981;28;19968;-73
2022/05/24 04:12:23;;;;;;;;;;;22.60;99.90;;;;;;5041501;28;20382;-73
2022/05/24 04:14:48;;;;;;;;;;;22.60;99.90;;;;;;5049733;28;20322;-74
2022/05/24 04:17:14;;;;;;;;;;;22.60;99.90;;;;;;5046469;28;19912;-73
2022/05/24 04:19:39;;;;;;;;;;;22.60;99.90;;;;;;5051025;28;19974;-73
2022/05/24 04:22:05;;;;;;;;;;;22.70;99.90;;;;;;5053975;28;20342;-73
2022/05/24 04:24:30;;;;;;;;;;;22.60;99.90;;;;;;5052434;28;19908;-73
2022/05/24 04:26:56;;;;;;;;;;;22.60;99.90;;;;;;5034593;28;19912;-71
2022/05/24 04:29:22;;;;;;;;;;;22.60;99.90;;;;;;5052501;28;19955;-72
2022/05/24 04:31:47;;;;;;;;;;;22.60;99.90;;;;;;5019675;28;19935;-73
2022/05/24 04:34:14;;;;;;;;;;;22.60;99.90;;;;;;5032553;28;19909;-72
2022/05/24 04:36:39;;;;;;;;;;;22.60;99.90;;;;;;5042258;28;20266;-73
2022/05/24 04:39:05;;;;;;;;;;;22.70;99.90;;;;;;5052277;28;19912;-75
2022/05/24 04:44:14;;;;;;;;;;;22.80;99.90;;;;;;5052648;28;19916;-73
2022/05/24 04:49:24;;;;;;;;;;;22.90;99.90;;;;;;5032179;28;20402;-72
2022/05/24 04:51:53;;;;;;;;;;;22.90;99.90;;;;;;5040731;28;19913;-74
2022/05/24 04:54:19;;;;;;;;;;;22.90;99.90;;;;;;5051922;28;19915;-73
2022/05/24 04:56:46;;;;;;;;;;;23.00;99.90;;;;;;5050584;28;19920;-73
2022/05/24 04:59:12;;;;;;;;;;;23.00;99.90;;;;;;5050669;28;19924;-74
2022/05/24 05:01:38;;;;;;;;;;;23.00;99.90;;;;;;5051660;28;19913;-73
2022/05/24 05:04:03;;;;;;;;;;;23.20;99.90;;;;;;5032061;28;19908;-73
2022/05/24 05:06:29;;;;;;;;;;;23.20;99.90;;;;;;5031433;28;19932;-74
2022/05/24 05:08:54;;;;;;;;;;;23.30;99.90;;;;;;5031410;28;20008;-74
2022/05/24 05:11:20;;;;;;;;;;;23.30;99.90;;;;;;5036745;28;19923;-74
2022/05/24 05:13:46;;;;;;;;;;;23.40;99.90;;;;;;5051345;28;19920;-74
2022/05/24 05:16:12;;;;;;;;;;;23.50;99.90;;;;;;5050399;28;20004;-74
2022/05/24 05:18:38;;;;;;;;;;;23.50;99.90;;;;;;5049919;28;19943;-72
2022/05/24 05:21:03;;;;;;;;;;;23.50;99.90;;;;;;5048230;28;19920;-74
2022/05/24 05:23:29;;;;;;;;;;;23.60;99.90;;;;;;5054664;28;20371;-74
2022/05/24 05:25:54;;;;;;;;;;;23.70;99.90;;;;;;5059580;28;19975;-73
2022/05/24 05:28:20;;;;;;;;;;;23.80;99.90;;;;;;5050170;28;19913;-73
2022/05/24 05:33:31;;;;;;;;;;;23.80;99.90;;;;;;5051721;28;19916;-72
2022/05/24 05:35:57;;;;;;;;;;;23.90;99.90;;;;;;5051375;28;20363;-73
2022/05/24 05:38:23;;;;;;;;;;;23.90;99.90;;;;;;5047451;28;19909;-75
2022/05/24 05:40:52;;;;;;;;;;;23.90;99.90;;;;;;5031211;28;19917;-73
2022/05/24 05:43:18;;;;;;;;;;;24.00;99.90;;;;;;5046301;28;19916;-73
2022/05/24 05:45:50;;;;;;;;;;;24.00;99.90;;;;;;5047303;28;19913;-74
2022/05/24 05:48:16;;;;;;;;;;;24.10;99.90;;;;;;5049597;28;19996;-74
2022/05/24 05:50:41;;;;;;;;;;;24.30;99.90;;;;;;5049910;28;19978;-74
2022/05/24 05:53:07;;;;;;;;;;;24.30;99.90;;;;;;5055408;28;19975;-73
2022/05/24 05:55:35;;;;;;;;;;;24.40;99.90;;;;;;5064364;28;20424;-73
2022/05/24 05:58:01;;;;;;;;;;;24.50;99.90;;;;;;5046438;28;19921;-73
2022/05/24 06:00:26;;;;;;;;;;;24.60;99.90;;;;;;5048590;28;20517;-73
2022/05/24 06:02:52;;;;;;;;;;;24.70;99.90;;;;;;5051474;28;19960;-73
2022/05/24 06:05:17;;;;;;;;;;;24.80;99.90;;;;;;5051201;28;19913;-75
2022/05/24 06:07:43;;;;;;;;;;;24.90;99.90;;;;;;5061657;28;19973;-73
2022/05/24 06:10:09;;;;;;;;;;;24.80;99.90;;;;;;5066213;28;20000;-72
2022/05/24 06:12:35;;;;;;;;;;;24.90;99.90;;;;;;5063534;28;19963;-73
2022/05/24 06:15:01;;;;;;;;;;;24.90;99.90;;;;;;5049519;28;20468;-74
2022/05/24 06:17:26;;;;;;;;;;;24.90;99.90;;;;;;5043832;28;20015;-74
2022/05/24 06:19:52;;;;;;;;;;;24.90;99.90;;;;;;5052869;28;20288;-74
2022/05/24 06:22:17;;;;;;;;;;;24.90;99.90;;;;;;5046440;28;20510;-73
2022/05/24 06:24:46;;;;;;;;;;;25.00;99.90;;;;;;5047663;28;19913;-74
2022/05/24 06:27:11;;;;;;;;;;;25.10;99.90;;;;;;5048783;28;19916;-74
2022/05/24 06:29:37;;;;;;;;;;;25.10;99.90;;;;;;5059420;28;19999;-74
2022/05/24 06:32:03;;;;;;;;;;;25.20;99.90;;;;;;5040332;28;19924;-73
2022/05/24 06:34:32;;;;;;;;;;;24.90;99.90;;;;;;5053075;28;19913;-74
2022/05/24 06:36:58;;;;;;;;;;;24.90;99.90;;;;;;5041696;28;19912;-74
2022/05/24 06:39:24;;;;;;;;;;;24.90;99.90;;;;;;5049994;28;19915;-72
2022/05/24 06:41:49;;;;;;;;;;;25.00;99.90;;;;;;5042223;28;20295;-73
2022/05/24 06:44:15;;;;;;;;;;;25.20;99.90;;;;;;5060082;28;19951;-73
2022/05/24 06:46:40;;;;;;;;;;;25.30;99.90;;;;;;5026569;28;19917;-74
2022/05/24 06:49:07;;;;;;;;;;;25.20;99.90;;;;;;5054854;28;19995;-74
2022/05/24 06:51:32;;;;;;;;;;;25.40;99.90;;;;;;5041031;28;19913;-76
2022/05/24 06:53:58;;;;;;;;;;;25.70;99.90;;;;;;5049519;28;20336;-75
2022/05/24 06:56:23;;;;;;;;;;;25.50;99.90;;;;;;5047731;28;19912;-75
2022/05/24 06:58:49;;;;;;;;;;;25.50;99.90;;;;;;5049457;28;20003;-74
2022/05/24 07:03:59;;;;;;;;;;;25.60;99.90;;;;;;5046051;28;19920;-74
2022/05/24 07:06:25;;;;;;;;;;;25.70;99.90;;;;;;5046022;28;19920;-74
2022/05/24 07:08:51;;;;;;;;;;;25.40;99.90;;;;;;5047366;28;19912;-73
2022/05/24 07:11:17;;;;;;;;;;;25.30;99.90;;;;;;5045634;28;19958;-75
2022/05/24 07:13:43;;;;;;;;;;;25.30;99.90;;;;;;5050192;28;19916;-74
2022/05/24 07:16:09;;;;;;;;;;;25.30;99.90;;;;;;5042930;28;19913;-73
2022/05/24 07:18:35;;;;;;;;;;;25.50;99.90;;;;;;5046337;28;19923;-74
2022/05/24 07:21:01;;;;;;;;;;;25.70;99.90;;;;;;5049563;28;19935;-74
2022/05/24 07:23:27;;;;;;;;;;;25.90;99.90;;;;;;5048615;28;19921;-75
2022/05/24 07:25:54;;;;;;;;;;;25.80;99.90;;;;;;5034066;28;20457;-74
2022/05/24 07:28:21;;;;;;;;;;;25.70;99.90;;;;;;5049082;28;19912;-73
2022/05/24 07:30:47;;;;;;;;;;;25.80;99.90;;;;;;5052067;28;20215;-74
2022/05/24 07:33:13;;;;;;;;;;;25.70;99.90;;;;;;5049539;28;19916;-74
2022/05/24 07:35:39;;;;;;;;;;;25.60;99.90;;;;;;5051839;28;19912;-76
2022/05/24 07:38:08;;;;;;;;;;;25.80;99.90;;;;;;5046276;28;20002;-74
2022/05/24 07:46:06;;;;;;;;;;;25.80;99.90;;;;;;5058490;28;19924;-73
2022/05/24 07:48:35;;;;;;;;;;;26.00;99.90;;;;;;5052671;28;19997;-74
2022/05/24 07:51:01;;;;;;;;;;;26.00;99.90;;;;;;5052486;28;19966;-75
2022/05/24 07:53:33;;;;;;;;;;;26.00;99.90;;;;;;5051160;28;19919;-74
2022/05/24 07:56:01;;;;;;;;;;;26.10;99.90;;;;;;5028930;28;20291;-74
2022/05/24 07:58:27;;;;;;;;;;;26.30;99.90;;;;;;5033068;28;20657;-67
2022/05/24 08:00:56;;;;;;;;;;;26.30;99.90;;;;;;5045596;28;20398;-65
2022/05/24 08:03:22;;;;;;;;;;;26.30;99.90;;;;;;5051482;28;20009;-66
2022/05/24 08:05:48;;;;;;;;;;;26.50;99.90;;;;;;5058702;28;19952;-67
2022/05/24 08:08:14;;;;;;;;;;;26.40;99.90;;;;;;5049806;28;19940;-64
2022/05/24 08:10:40;;;;;;;;;;;26.30;99.90;;;;;;5052723;28;20282;-64
2022/05/24 08:13:07;;;;;;;;;;;26.20;99.90;;;;;;5050776;28;19909;-67
2022/05/24 08:15:33;;;;;;;;;;;25.90;99.90;;;;;;5048713;28;19927;-68
2022/05/24 08:17:58;;;;;;;;;;;25.80;99.90;;;;;;5057935;28;19912;-66
2022/05/24 08:20:25;;;;;;;;;;;25.70;99.90;;;;;;5060075;28;19915;-67
2022/05/24 08:22:50;;;;;;;;;;;25.90;99.90;;;;;;5045957;28;20321;-67
2022/05/24 08:25:16;;;;;;;;;;;26.10;99.90;;;;;;5058084;28;19913;-67
2022/05/24 08:27:42;;;;;;;;;;;26.00;99.90;;;;;;5050327;28;19959;-67
2022/05/24 08:30:10;;;;;;;;;;;26.20;99.90;;;;;;5060912;28;19908;-67
2022/05/24 08:32:36;;;;;;;;;;;26.40;99.90;;;;;;5064158;28;20294;-66
2022/05/24 08:35:02;;;;;;;;;;;26.60;99.90;;;;;;5073583;28;20007;-67
2022/05/24 08:37:29;;;;;;;;;;;26.70;99.90;;;;;;5053324;28;19919;-67
2022/05/24 08:39:57;;;;;;;;;;;26.60;99.90;;;;;;5048439;28;19913;-67
2022/05/24 08:42:32;;;;;;;;;;;26.80;99.90;;;;;;5053513;28;20512;-66
2022/05/24 08:50:33;;;;;;;;;;;27.00;99.90;;;;;;5060140;28;19962;-67
2022/05/24 08:53:03;;;;;;;;;;;26.80;99.90;;;;;;5052087;28;20259;-68
2022/05/24 08:55:29;;;;;;;;;;;27.00;99.90;;;;;;5051988;28;19916;-67
2022/05/24 08:57:56;;;;;;;;;;;27.20;99.90;;;;;;5051906;28;19921;-69
2022/05/24 09:00:24;;;;;;;;;;;27.30;99.90;;;;;;5050709;28;19909;-69
2022/05/24 09:02:50;;;;;;;;;;;27.50;99.90;;;;;;5050325;28;19931;-68
2022/05/24 09:05:20;;;;;;;;;;;27.50;99.90;;;;;;5058167;28;19978;-68
2022/05/24 09:08:12;;;;;;;;;;;27.30;99.90;;;;;;5069446;28;19917;-68
2022/05/24 09:10:49;;;;;;;;;;;27.30;99.90;;;;;;5024973;28;19966;-68
2022/05/24 09:13:24;;;;;;;;;;;27.50;99.90;;;;;;5045197;28;20034;-69
2022/05/24 09:15:57;;;;;;;;;;;27.40;99.90;;;;;;5052426;28;19913;-67
2022/05/24 09:18:37;;;;;;;;;;;27.50;99.90;;;;;;5060069;28;20378;-69
2022/05/24 09:21:03;;;;;;;;;;;27.50;99.90;;;;;;5052097;28;19924;-69
2022/05/24 09:23:33;;;;;;;;;;;27.70;99.90;;;;;;5050680;28;20035;-68
2022/05/24 09:26:08;;;;;;;;;;;27.80;99.90;;;;;;5050212;28;20393;-69
2022/05/24 09:28:42;;;;;;;;;;;27.80;99.90;;;;;;5049680;28;19920;-68
2022/05/24 09:31:09;;;;;;;;;;;27.60;99.90;;;;;;5049938;28;19920;-68
2022/05/24 09:33:38;;;;;;;;;;;27.60;99.90;;;;;;5047765;28;19920;-68
2022/05/24 09:36:04;;;;;;;;;;;27.50;99.90;;;;;;5050247;28;20000;-68
2022/05/24 09:38:34;;;;;;;;;;;27.40;99.90;;;;;;5050346;28;19959;-68
2022/05/24 09:41:09;;;;;;;;;;;27.50;99.90;;;;;;5049295;28;19920;-68
2022/05/24 09:43:36;;;;;;;;;;;27.30;99.90;;;;;;5044859;28;19928;-66
2022/05/24 09:46:04;;;;;;;;;;;27.30;99.90;;;;;;5058388;28;19944;-66
2022/05/24 09:48:31;;;;;;;;;;;27.40;99.90;;;;;;5044469;28;19919;-67
2022/05/24 09:50:57;;;;;;;;;;;27.60;99.90;;;;;;5048406;28;19913;-67
2022/05/24 09:53:26;;;;;;;;;;;27.80;99.90;;;;;;5049351;28;19964;-67
2022/05/24 09:56:01;;;;;;;;;;;27.70;99.90;;;;;;5049123;28;19994;-66
2022/05/24 09:58:27;;;;;;;;;;;27.90;99.90;;;;;;4983378;28;1870816;-66
2022/05/24 10:00:57;;;;;;;;;;;28.10;99.90;;;;;;5057319;28;20053;-65
2022/05/24 10:03:24;;;;;;;;;;;28.30;99.90;;;;;;5050001;28;20455;-67
2022/05/24 10:06:13;;;;;;;;;;;28.20;99.90;;;;;;5050498;28;20282;-66
2022/05/24 10:08:43;;;;;;;;;;;28.30;99.90;;;;;;5016797;28;20274;-67
2022/05/24 10:11:22;;;;;;;;;;;28.70;99.90;;;;;;5049713;28;19912;-66
2022/05/24 10:13:53;;;;;;;;;;;28.90;99.90;;;;;;5049103;28;20256;-66
2022/05/24 10:16:28;;;;;;;;;;;28.90;99.90;;;;;;5050340;28;20085;-66
2022/05/24 10:19:06;;;;;;;;;;;28.90;99.90;;;;;;5049177;28;20436;-67
2022/05/24 10:21:38;;;;;;;;;;;28.90;99.90;;;;;;5046710;28;19913;-67
2022/05/24 10:24:10;;;;;;;;;;;29.20;99.90;;;;;;5048595;28;20003;-65
2022/05/24 10:26:41;;;;;;;;;;;29.30;99.90;;;;;;5047701;28;19921;-68
2022/05/24 10:29:20;;;;;;;;;;;29.20;99.90;;;;;;5047623;28;19913;-67
2022/05/24 10:31:54;;;;;;;;;;;28.90;99.90;;;;;;5048639;28;19924;-66
2022/05/24 10:40:37;;;;;;;;;;;28.00;99.90;;;;;;5044329;28;19943;-67
2022/05/24 10:43:13;;;;;;;;;;;27.70;99.90;;;;;;5048990;28;19913;-68
2022/05/24 10:45:50;;;;;;;;;;;27.10;99.90;;;;;;5030606;28;19921;-66
2022/05/24 10:48:35;;;;;;;;;;;26.50;99.90;;;;;;5048914;28;19917;-67
2022/05/24 10:51:09;;;;;;;;;;;26.20;99.90;;;;;;5024016;28;19920;-66
2022/05/24 10:53:47;;;;;;;;;;;25.70;99.90;;;;;;5045380;28;20327;-67
2022/05/24 10:56:18;;;;;;;;;;;25.40;99.90;;;;;;5048024;28;20023;-66
2022/05/24 10:58:45;;;;;;;;;;;25.20;99.90;;;;;;5036166;28;20509;-68
2022/05/24 11:01:34;;;;;;;;;;;25.50;99.90;;;;;;5057281;28;19923;-68
2022/05/24 11:04:10;;;;;;;;;;;25.70;99.90;;;;;;5049569;28;19913;-68
2022/05/24 11:06:41;;;;;;;;;;;25.60;99.90;;;;;;5054712;28;19948;-66
2022/05/24 11:09:10;;;;;;;;;;;25.50;99.90;;;;;;5054243;28;20007;-68
2022/05/24 11:11:51;;;;;;;;;;;25.80;99.90;;;;;;5052228;28;19916;-68
2022/05/24 11:14:17;;;;;;;;;;;25.80;99.90;;;;;;5052865;28;19921;-69
2022/05/24 11:16:44;;;;;;;;;;;25.70;99.90;;;;;;5045794;28;19924;-68
2022/05/24 11:19:31;;;;;;;;;;;25.80;99.90;;;;;;5050130;28;19913;-68
2022/05/24 11:22:03;;;;;;;;;;;25.90;99.90;;;;;;5051770;28;19959;-70
2022/05/24 11:24:35;;;;;;;;;;;25.90;99.90;;;;;;5052805;28;20389;-70
2022/05/24 11:27:01;;;;;;;;;;;25.70;99.90;;;;;;5048463;28;20338;-69
2022/05/24 11:29:37;;;;;;;;;;;25.60;99.90;;;;;;5051667;28;19913;-67
2022/05/24 11:32:05;;;;;;;;;;;25.40;99.90;;;;;;5050086;28;19913;-68
2022/05/24 11:34:33;;;;;;;;;;;25.10;99.90;;;;;;5052903;28;20268;-69
2022/05/24 11:37:03;;;;;;;;;;;25.40;99.90;;;;;;5049531;28;19971;-70
2022/05/24 11:39:31;;;;;;;;;;;25.60;99.90;;;;;;5052982;28;20297;-70
2022/05/24 11:42:16;;;;;;;;;;;25.60;99.90;;;;;;5049491;28;20003;-69
2022/05/24 11:44:41;;;;;;;;;;;25.30;99.90;;;;;;5047836;28;20290;-70
2022/05/24 11:47:07;;;;;;;;;;;25.30;99.90;;;;;;5050279;28;19917;-72
2022/05/24 11:49:32;;;;;;;;;;;25.30;99.90;;;;;;5034993;28;19914;-71
2022/05/24 11:51:58;;;;;;;;;;;25.70;99.90;;;;;;5054344;28;20385;-70
2022/05/24 11:54:24;;;;;;;;;;;25.50;99.90;;;;;;5051570;28;20302;-69
2022/05/24 11:56:56;;;;;;;;;;;25.50;99.90;;;;;;5052339;28;19938;-70
2022/05/24 11:59:48;;;;;;;;;;;25.30;99.90;;;;;;5051070;28;19946;-70
2022/05/24 12:08:24;;;;;;;;;;;25.70;99.90;;;;;;5051989;28;19924;-69
2022/05/24 12:10:51;;;;;;;;;;;25.80;99.90;;;;;;5052744;28;19915;-69
2022/05/24 12:13:16;;;;;;;;;;;25.60;99.90;;;;;;5031147;28;19917;-70
2022/05/24 12:15:43;;;;;;;;;;;25.70;99.90;;;;;;5052032;28;19913;-70
2022/05/24 12:18:09;;;;;;;;;;;25.60;99.90;;;;;;5051363;28;19912;-69
2022/05/24 12:20:35;;;;;;;;;;;25.90;99.90;;;;;;5049307;28;19919;-69
2022/05/24 12:23:07;;;;;;;;;;;26.10;99.90;;;;;;5057477;28;20345;-69
2022/05/24 12:25:52;;;;;;;;;;;26.30;99.90;;;;;;5052444;28;20062;-70
2022/05/24 12:28:19;;;;;;;;;;;26.40;99.90;;;;;;5046859;28;19925;-69
2022/05/24 12:30:47;;;;;;;;;;;26.60;99.90;;;;;;5060928;28;19909;-69
2022/05/24 12:33:12;;;;;;;;;;;26.50;99.90;;;;;;5052221;28;20003;-71
2022/05/24 12:35:38;;;;;;;;;;;26.30;99.90;;;;;;5048163;28;20004;-69
2022/05/24 12:38:14;;;;;;;;;;;26.20;99.90;;;;;;5047100;28;19928;-70
2022/05/24 12:40:40;;;;;;;;;;;26.30;99.90;;;;;;5051668;28;20282;-71
2022/05/24 12:43:13;;;;;;;;;;;26.40;99.90;;;;;;5050457;28;19912;-69
2022/05/24 12:45:41;;;;;;;;;;;26.30;99.90;;;;;;5050021;28;19912;-69
2022/05/24 12:48:26;;;;;;;;;;;26.50;99.90;;;;;;5058306;28;19916;-71
2022/05/24 12:50:59;;;;;;;;;;;26.20;99.90;;;;;;5065775;28;19957;-69
2022/05/24 12:53:25;;;;;;;;;;;25.80;99.90;;;;;;5052342;28;19939;-70
2022/05/24 12:55:59;;;;;;;;;;;25.80;99.90;;;;;;5051807;28;20359;-70
2022/05/24 12:58:27;;;;;;;;;;;25.70;99.90;;;;;;5052164;28;19970;-69
2022/05/24 13:01:12;;;;;;;;;;;25.80;99.90;;;;;;5051676;28;19909;-71
2022/05/24 13:03:43;;;;;;;;;;;25.90;99.90;;;;;;5051869;28;19909;-71
2022/05/24 13:06:08;;;;;;;;;;;26.00;99.90;;;;;;5050534;28;19913;-70
2022/05/24 13:08:34;;;;;;;;;;;26.10;99.90;;;;;;5048043;28;19935;-70
2022/05/24 13:11:00;;;;;;;;;;;25.90;99.90;;;;;;5055758;28;19959;-71
2022/05/24 13:13:25;;;;;;;;;;;25.80;99.90;;;;;;5055796;28;19938;-69
2022/05/24 13:15:56;;;;;;;;;;;25.90;99.90;;;;;;5054994;28;19935;-68
2022/05/24 13:18:21;;;;;;;;;;;25.80;99.90;;;;;;5059643;28;19916;-68
2022/05/24 13:20:48;;;;;;;;;;;26.20;99.90;;;;;;5069983;28;19909;-68
2022/05/24 13:23:14;;;;;;;;;;;26.10;99.90;;;;;;5063526;28;19919;-69
2022/05/24 13:25:42;;;;;;;;;;;26.00;99.90;;;;;;5049143;28;19913;-69
2022/05/24 13:28:08;;;;;;;;;;;26.10;99.90;;;;;;5064752;28;19912;-68
2022/05/24 13:33:44;;;;;;;;;;;26.00;99.90;;;;;;5049100;28;19996;-68
2022/05/24 13:36:15;;;;;;;;;;;26.10;99.90;;;;;;5043488;28;19938;-70
2022/05/24 13:38:41;;;;;;;;;;;26.10;99.90;;;;;;5063116;28;19909;-71
2022/05/24 13:41:08;;;;;;;;;;;25.90;99.90;;;;;;5044614;28;20008;-71
2022/05/24 13:43:34;;;;;;;;;;;25.60;99.90;;;;;;5051392;28;19913;-71
2022/05/24 13:46:07;;;;;;;;;;;25.60;99.90;;;;;;5044643;28;19967;-71
2022/05/24 13:48:38;;;;;;;;;;;25.80;99.90;;;;;;5039737;28;19920;-71
2022/05/24 13:51:04;;;;;;;;;;;25.80;99.90;;;;;;5041023;28;19913;-70
2022/05/24 13:53:39;;;;;;;;;;;25.70;99.90;;;;;;5041623;28;20264;-70
2022/05/24 13:56:24;;;;;;;;;;;25.80;99.90;;;;;;5042440;28;20401;-70
2022/05/24 13:59:01;;;;;;;;;;;25.80;99.90;;;;;;5045872;28;19947;-69
2022/05/24 14:01:31;;;;;;;;;;;25.80;99.90;;;;;;5045276;28;19987;-70
2022/05/24 14:04:02;;;;;;;;;;;25.80;99.90;;;;;;5050623;28;20363;-69
2022/05/24 14:06:29;;;;;;;;;;;25.90;99.90;;;;;;5049852;28;19913;-70
2022/05/24 14:08:56;;;;;;;;;;;25.90;99.90;;;;;;5052199;28;19941;-69
2022/05/24 14:11:33;;;;;;;;;;;26.00;99.90;;;;;;5022571;28;19948;-70
2022/05/24 14:13:58;;;;;;;;;;;26.20;99.90;;;;;;5048512;28;19924;-68
2022/05/24 14:16:25;;;;;;;;;;;26.10;99.90;;;;;;5051371;28;19913;-71
2022/05/24 14:18:51;;;;;;;;;;;26.20;99.90;;;;;;5051174;28;19956;-69
2022/05/24 14:21:18;;;;;;;;;;;26.20;99.90;;;;;;5056094;28;19915;-69
2022/05/24 14:23:44;;;;;;;;;;;26.40;99.90;;;;;;5047981;28;20252;-70
2022/05/24 14:26:09;;;;;;;;;;;26.70;99.90;;;;;;5049364;28;19927;-70
2022/05/24 14:28:35;;;;;;;;;;;26.70;99.90;;;;;;5058375;28;19917;-70
2022/05/24 14:31:01;;;;;;;;;;;26.60;99.90;;;;;;5054086;28;19913;-69
2022/05/24 14:33:27;;;;;;;;;;;26.40;99.90;;;;;;5049689;28;20035;-70
2022/05/24 14:35:53;;;;;;;;;;;26.50;99.90;;;;;;5050076;28;19917;-70
2022/05/24 14:38:19;;;;;;;;;;;26.40;99.90;;;;;;5058427;28;19917;-69
2022/05/24 14:40:46;;;;;;;;;;;26.50;99.90;;;;;;5053714;28;19936;-69
2022/05/24 14:43:14;;;;;;;;;;;26.40;99.90;;;;;;5054485;28;19909;-70
2022/05/24 14:45:39;;;;;;;;;;;26.20;99.90;;;;;;5054138;28;20355;-68
2022/05/24 14:48:05;;;;;;;;;;;26.30;99.90;;;;;;5056677;28;19982;-69
2022/05/24 14:50:32;;;;;;;;;;;26.40;99.90;;;;;;5067768;28;19952;-70
2022/05/24 14:52:59;;;;;;;;;;;26.30;99.90;;;;;;5034324;28;20262;-70
2022/05/24 14:55:25;;;;;;;;;;;26.40;99.90;;;;;;5043240;28;19920;-69
2022/05/24 14:57:51;;;;;;;;;;;26.50;99.90;;;;;;5033161;28;20335;-68
2022/05/24 15:00:18;;;;;;;;;;;26.40;99.90;;;;;;5059449;28;19912;-70
2022/05/24 15:02:44;;;;;;;;;;;26.20;99.90;;;;;;5054852;28;19966;-69
2022/05/24 15:05:10;;;;;;;;;;;26.10;99.90;;;;;;5063524;28;19955;-70
2022/05/24 15:15:50;;;;;;;;;;;26.10;99.90;;;;;;5040746;28;19912;-68
2022/05/24 15:18:16;;;;;;;;;;;26.20;99.90;;;;;;5053375;28;19913;-69
2022/05/24 15:20:43;;;;;;;;;;;26.20;99.90;;;;;;5060548;28;20015;-69
2022/05/24 15:23:14;;;;;;;;;;;25.90;99.90;;;;;;5056997;28;19919;-69